Terminal Aerodrome Forecast
Issued by NWS Mt. Holly, NJ

Home | Current Version | Previous Version | Text Only | Print | Product List | Glossary On
Versions: 1 2 3 4 5 6 7 8 9 10 11 12 13 14 15 16 17 18 19 20 21 22 23 24 25 26
146
FTUS41 KPHI 292100 AAB
TAFPHL
TAF AMD
KPHL 292100Z 2921/3024 10007KT P6SM OVC012
     FM292200 12006KT P6SM BKN015
     FM300200 11005KT 5SM BR OVC010
     FM300600 12004KT 4SM BR OVC005
      TEMPO 3008/3011 2SM BR OVC003
     FM301500 12008KT 5SM BR OVC010=

USA.gov is the U.S. government's official web portal to all federal, state and local government web resources and services.